createdAt,value
2019-02-21T00:00:39.824Z,11.40
2019-02-21T00:05:42.506Z,11.33
2019-02-21T00:10:45.215Z,11.36
2019-02-21T00:15:47.968Z,11.26
2019-02-21T00:20:50.644Z,11.21
2019-02-21T00:25:55.731Z,11.27
2019-02-21T00:30:58.004Z,11.29
2019-02-21T00:36:00.710Z,11.23
2019-02-21T00:41:04.314Z,11.18
2019-02-21T00:46:07.007Z,11.20
2019-02-21T00:51:09.718Z,11.13
2019-02-21T00:56:12.394Z,11.18
2019-02-21T01:01:15.083Z,11.10
2019-02-21T01:06:17.775Z,11.10
2019-02-21T01:11:20.657Z,11.05
2019-02-21T01:16:23.338Z,11.02
2019-02-21T01:21:26.017Z,11.01
2019-02-21T01:26:28.739Z,11.06
2019-02-21T01:31:31.439Z,11.02
2019-02-21T01:36:34.123Z,11.04
2019-02-21T01:41:36.811Z,11.01
2019-02-21T01:46:39.536Z,11.08
2019-02-21T01:51:42.214Z,11.07
2019-02-21T01:56:44.898Z,10.92
2019-02-21T02:01:47.585Z,10.88
2019-02-21T02:06:50.267Z,10.91
2019-02-21T02:11:53.008Z,10.94
2019-02-21T02:16:55.671Z,10.96
2019-02-21T02:21:58.362Z,10.94
2019-02-21T02:27:01.119Z,10.93
2019-02-21T02:32:03.888Z,10.94
2019-02-21T02:37:06.588Z,10.95
2019-02-21T02:42:09.256Z,10.95
2019-02-21T02:47:11.930Z,10.94
2019-02-21T02:52:14.650Z,10.82
2019-02-21T02:57:17.337Z,10.84
2019-02-21T03:02:20.002Z,10.83
2019-02-21T03:07:22.677Z,10.80
2019-02-21T03:12:25.359Z,10.81
2019-02-21T03:17:28.063Z,10.88
2019-02-21T03:22:30.751Z,10.91
2019-02-21T03:27:33.470Z,11.03
2019-02-21T03:32:36.179Z,10.96
2019-02-21T03:37:38.913Z,10.99
2019-02-21T03:42:41.733Z,10.95
2019-02-21T03:47:44.413Z,10.96
2019-02-21T03:52:47.089Z,10.96
2019-02-21T03:57:49.768Z,10.94
2019-02-21T04:02:52.474Z,10.90
2019-02-21T04:07:55.176Z,10.77
2019-02-21T04:12:57.853Z,10.59
2019-02-21T04:18:00.573Z,10.50
2019-02-21T04:23:03.282Z,10.42
2019-02-21T04:28:05.971Z,10.45
2019-02-21T04:33:08.655Z,10.54
2019-02-21T04:38:11.350Z,10.58
2019-02-21T04:43:14.092Z,10.60
2019-02-21T04:48:16.774Z,10.55
2019-02-21T04:53:19.453Z,10.58
2019-02-21T04:58:22.561Z,10.54
2019-02-21T05:03:25.229Z,10.53
2019-02-21T05:08:27.926Z,10.51
2019-02-21T05:13:30.628Z,10.42
2019-02-21T05:18:33.388Z,10.50
2019-02-21T05:23:36.838Z,10.55
2019-02-21T05:28:41.296Z,10.54
2019-02-21T05:34:09.684Z,10.46
2019-02-21T05:39:34.854Z,10.36
2019-02-21T05:44:43.085Z,10.40
2019-02-21T05:49:54.274Z,10.39
2019-02-21T05:55:04.857Z,10.30
2019-02-21T06:00:42.601Z,10.26
2019-02-21T06:06:04.951Z,10.23
2019-02-21T06:11:25.946Z,10.20
2019-02-21T06:16:46.600Z,10.18
2019-02-21T06:22:10.138Z,10.26
2019-02-21T06:27:13.069Z,10.19
2019-02-21T06:32:15.730Z,10.24
2019-02-21T06:37:18.407Z,10.28
2019-02-21T06:42:21.112Z,10.28
2019-02-21T06:47:23.786Z,10.34
2019-02-21T06:52:26.464Z,10.26
2019-02-21T06:57:29.153Z,10.35
2019-02-21T07:02:31.817Z,10.35
2019-02-21T07:07:34.494Z,10.35
2019-02-21T07:12:37.163Z,10.27
2019-02-21T07:17:48.907Z,10.38
2019-02-21T07:22:44.405Z,10.43
2019-02-21T07:27:47.092Z,10.66
2019-02-21T07:32:49.758Z,10.83
2019-02-21T07:37:52.425Z,10.94
2019-02-21T07:42:55.083Z,10.99
2019-02-21T07:47:57.744Z,10.94
2019-02-21T07:53:02.706Z,10.83
2019-02-21T07:58:05.008Z,10.88
2019-02-21T08:03:09.181Z,11.07
2019-02-21T08:08:12.082Z,11.11
2019-02-21T08:13:14.751Z,11.11
2019-02-21T08:18:17.443Z,11.25
2019-02-21T08:23:20.147Z,11.18
2019-02-21T08:28:22.840Z,11.37
2019-02-21T08:33:58.357Z,11.53
2019-02-21T08:38:55.357Z,11.86
2019-02-21T08:43:58.028Z,12.03
2019-02-21T08:49:00.699Z,12.19
2019-02-21T08:54:05.545Z,12.10
2019-02-21T08:59:07.959Z,12.16
2019-02-21T09:04:26.417Z,12.36
2019-02-21T09:09:15.198Z,12.64
2019-02-21T09:14:17.883Z,12.77
2019-02-21T09:19:20.581Z,12.71
2019-02-21T09:24:37.499Z,12.80
2019-02-21T09:29:27.853Z,12.62
2019-02-21T09:34:30.527Z,12.82
2019-02-21T09:39:33.228Z,13.15
2019-02-21T09:44:36.019Z,13.41
2019-02-21T09:49:38.699Z,13.36
2019-02-21T09:54:41.389Z,13.31
2019-02-21T09:59:44.071Z,13.68
2019-02-21T10:04:46.748Z,13.83
2019-02-21T10:09:49.419Z,13.66
2019-02-21T10:14:52.111Z,13.64
2019-02-21T10:19:54.770Z,13.86
2019-02-21T10:24:57.466Z,13.99
2019-02-21T10:30:00.239Z,14.16
2019-02-21T10:35:03.555Z,14.19
2019-02-21T10:40:08.516Z,14.25
2019-02-21T10:45:13.892Z,13.99
2019-02-21T10:50:17.853Z,13.46
2019-02-21T10:55:24.157Z,13.45
2019-02-21T11:00:31.646Z,13.80
2019-02-21T11:05:44.263Z,14.12
2019-02-21T11:10:53.579Z,14.35
2019-02-21T11:15:56.327Z,14.48
2019-02-21T11:21:02.147Z,14.59
2019-02-21T11:26:06.232Z,14.44
2019-02-21T11:31:08.957Z,14.62
2019-02-21T11:36:11.639Z,14.68
2019-02-21T11:41:14.311Z,14.78
2019-02-21T11:46:16.981Z,14.70
2019-02-21T11:51:19.660Z,14.96
2019-02-21T11:56:22.334Z,14.87
2019-02-21T12:01:25.006Z,14.85
2019-02-21T12:06:27.678Z,14.76
2019-02-21T12:11:30.360Z,14.57
2019-02-21T12:16:33.038Z,14.93
2019-02-21T12:21:35.730Z,15.13
2019-02-21T12:26:38.400Z,15.16
2019-02-21T12:31:41.085Z,15.09
2019-02-21T12:36:43.774Z,15.15
2019-02-21T12:41:46.443Z,15.37
2019-02-21T12:46:49.143Z,15.40
2019-02-21T12:51:51.842Z,15.43
2019-02-21T12:56:54.516Z,15.51
2019-02-21T13:01:57.222Z,15.79
2019-02-21T13:06:59.923Z,15.69
2019-02-21T13:12:02.725Z,15.63
2019-02-21T13:17:05.403Z,15.58
2019-02-21T13:22:08.083Z,15.54
2019-02-21T13:27:10.759Z,15.60
2019-02-21T13:32:13.434Z,15.36
2019-02-21T13:37:27.971Z,15.35
2019-02-21T13:42:20.693Z,15.37
2019-02-21T13:47:23.374Z,15.23
2019-02-21T13:52:26.067Z,15.29
2019-02-21T13:57:28.743Z,15.26
2019-02-21T14:02:31.413Z,15.17
2019-02-21T14:07:34.102Z,15.24
2019-02-21T14:12:36.761Z,15.35
2019-02-21T14:17:39.452Z,15.25
2019-02-21T14:22:42.146Z,15.21
2019-02-21T14:27:44.851Z,15.04
2019-02-21T14:32:47.553Z,14.81
2019-02-21T14:37:50.228Z,14.67
2019-02-21T14:42:52.930Z,14.37
2019-02-21T14:47:55.640Z,14.40
2019-02-21T14:52:58.319Z,14.35
2019-02-21T14:58:01.015Z,14.38
2019-02-21T15:03:03.740Z,14.44
2019-02-21T15:08:06.427Z,14.27
2019-02-21T15:13:09.110Z,14.13
2019-02-21T15:18:11.814Z,13.98
2019-02-21T15:23:14.491Z,14.01
2019-02-21T15:28:17.167Z,14.13
2019-02-21T15:33:19.860Z,14.13
2019-02-21T15:38:22.538Z,14.03
2019-02-21T15:43:25.248Z,13.85
2019-02-21T15:48:27.971Z,13.85
2019-02-21T15:53:30.674Z,13.78
2019-02-21T15:58:33.371Z,13.71
2019-02-21T16:03:36.062Z,13.70
2019-02-21T16:08:38.734Z,13.57
2019-02-21T16:13:41.546Z,13.58
2019-02-21T16:18:44.818Z,13.60
2019-02-21T16:23:47.541Z,13.62
2019-02-21T16:28:50.289Z,13.62
2019-02-21T16:33:52.979Z,13.61
2019-02-21T16:44:02.101Z,13.61
2019-02-21T16:54:21.571Z,13.60
2019-02-21T16:59:24.244Z,13.60
2019-02-21T17:04:26.942Z,13.55
2019-02-21T17:09:29.678Z,13.58
2019-02-21T17:14:32.467Z,13.65
2019-02-21T17:19:35.180Z,13.65
2019-02-21T17:24:37.892Z,13.63
2019-02-21T17:29:40.577Z,13.60
2019-02-21T17:34:43.295Z,13.51
2019-02-21T17:39:45.976Z,13.52
2019-02-21T17:44:48.670Z,13.54
2019-02-21T17:49:51.365Z,13.49
2019-02-21T17:54:54.060Z,13.34
2019-02-21T17:59:56.779Z,13.23
2019-02-21T18:04:59.485Z,13.12
2019-02-21T18:10:02.712Z,13.07
2019-02-21T18:15:05.942Z,13.03
2019-02-21T18:20:09.263Z,12.95
2019-02-21T18:25:17.107Z,12.92
2019-02-21T18:30:19.799Z,12.87
2019-02-21T18:35:22.505Z,12.89
2019-02-21T18:40:25.207Z,12.86
2019-02-21T18:45:27.889Z,12.72
2019-02-21T18:50:38.199Z,12.71
2019-02-21T18:55:35.346Z,12.65
2019-02-21T19:00:38.093Z,12.65
2019-02-21T19:05:40.806Z,12.61
2019-02-21T19:10:43.553Z,12.62
2019-02-21T19:15:46.332Z,12.62
2019-02-21T19:20:49.100Z,12.68
2019-02-21T19:25:51.851Z,12.73
2019-02-21T19:31:03.795Z,12.69
2019-02-21T19:36:06.483Z,12.69
2019-02-21T19:41:09.492Z,12.72
2019-02-21T19:46:12.213Z,12.75
2019-02-21T19:51:14.894Z,12.70
2019-02-21T19:56:17.579Z,12.74
2019-02-21T20:01:20.278Z,12.73
2019-02-21T20:06:22.980Z,12.69
2019-02-21T20:11:25.727Z,12.72
2019-02-21T20:16:28.484Z,12.68
2019-02-21T20:21:31.295Z,12.70
2019-02-21T20:26:34.022Z,12.68
2019-02-21T20:31:36.702Z,12.70
2019-02-21T20:36:50.451Z,12.74
2019-02-21T20:41:44.068Z,12.77
2019-02-21T20:46:46.842Z,12.77
2019-02-21T20:51:49.529Z,12.79
2019-02-21T20:56:52.262Z,12.79
2019-02-21T21:01:54.987Z,12.79
2019-02-21T21:06:57.685Z,12.85
2019-02-21T21:12:00.362Z,12.86
2019-02-21T21:17:03.048Z,12.87
2019-02-21T21:22:05.763Z,12.84
2019-02-21T21:27:08.526Z,12.88
2019-02-21T21:32:11.220Z,12.86
2019-02-21T21:37:13.918Z,12.79
2019-02-21T21:42:16.612Z,12.77
2019-02-21T21:47:19.321Z,12.74
2019-02-21T21:52:22.028Z,12.78
2019-02-21T21:57:24.709Z,12.75
2019-02-21T22:02:27.407Z,12.75
2019-02-21T22:07:30.080Z,12.72
2019-02-21T22:12:32.768Z,12.79
2019-02-21T22:17:35.463Z,12.74
2019-02-21T22:22:38.152Z,12.68
2019-02-21T22:27:40.832Z,12.65
2019-02-21T22:32:43.581Z,12.66
2019-02-21T22:37:46.350Z,12.67
2019-02-21T22:42:49.048Z,12.59
2019-02-21T22:47:51.726Z,12.52
2019-02-21T22:52:54.399Z,12.49
2019-02-21T22:57:57.079Z,12.47
2019-02-21T23:03:00.563Z,12.42
2019-02-21T23:09:04.972Z,12.41
2019-02-21T23:14:07.650Z,12.44
2019-02-21T23:19:10.437Z,12.44
2019-02-21T23:24:13.151Z,12.48
2019-02-21T23:29:15.824Z,12.48
2019-02-21T23:34:32.577Z,12.55
2019-02-21T23:39:38.427Z,12.53
2019-02-21T23:44:39.853Z,12.55
2019-02-21T23:49:42.530Z,12.61
2019-02-21T23:54:45.213Z,12.51
2019-02-21T23:59:47.889Z,12.54
